Time;durP1;ratioP1;P1;durP2;ratioP2;P2;SDS_P1;SDS_P2;PMS_P1;PMS_P2;Temp;Humidity;BMP_temperature;BMP_pressure;BME280_temperature;BME280_humidity;BME280_pressure;Samples;Min_cycle;Max_cycle;Signal;HPM_P1;HPM_P2
2023/06/29 00:01:49;;;;;;;31.00;13.98;;;;;;;19.76;100.00;101641.91;5223421;28;20028;-70
2023/06/29 00:04:21;;;;;;;23.33;13.60;;;;;;;19.69;100.00;101633.72;5223437;28;20562;-70
2023/06/29 00:06:53;;;;;;;27.45;14.77;;;;;;;19.66;100.00;101639.59;5222844;28;20037;-70
2023/06/29 00:09:24;;;;;;;24.65;14.00;;;;;;;19.65;100.00;101637.91;5222296;28;20024;-70
2023/06/29 00:11:54;;;;;;;30.23;15.32;;;;;;;19.64;100.00;101637.06;5223143;28;20482;-70
2023/06/29 00:14:25;;;;;;;27.65;14.25;;;;;;;19.64;100.00;101634.34;5222986;28;20025;-70
2023/06/29 00:16:56;;;;;;;29.48;16.33;;;;;;;19.65;100.00;101630.56;5221212;28;20028;-70
2023/06/29 00:19:26;;;;;;;28.63;14.45;;;;;;;19.68;100.00;101637.50;5223494;28;20401;-69
2023/06/29 00:21:58;;;;;;;30.20;14.48;;;;;;;19.72;100.00;101630.56;5222580;28;20112;-70
2023/06/29 00:24:28;;;;;;;34.97;15.05;;;;;;;19.75;100.00;101626.63;5222954;28;20090;-70
2023/06/29 00:26:59;;;;;;;24.00;13.20;;;;;;;19.76;100.00;101633.72;5222340;28;20020;-70
2023/06/29 00:29:29;;;;;;;29.42;13.95;;;;;;;19.75;100.00;101634.78;5223555;28;20031;-70
2023/06/29 00:32:00;;;;;;;27.25;13.80;;;;;;;19.71;100.00;101633.53;5223031;28;20028;-70
2023/06/29 00:34:31;;;;;;;32.63;13.77;;;;;;;19.64;100.00;101628.06;5223269;28;20029;-70
2023/06/29 00:37:01;;;;;;;28.75;14.02;;;;;;;19.61;100.00;101628.47;5222175;28;20025;-70
2023/06/29 00:39:34;;;;;;;27.02;14.75;;;;;;;19.61;100.00;101636.63;5222654;28;20130;-70
2023/06/29 00:42:04;;;;;;;32.15;14.60;;;;;;;19.62;100.00;101628.25;5222863;28;20052;-70
2023/06/29 00:44:35;;;;;;;28.35;14.13;;;;;;;19.59;100.00;101619.66;5222949;28;20067;-70
2023/06/29 00:47:06;;;;;;;29.88;14.63;;;;;;;19.58;100.00;101623.44;5221245;28;20397;-70
2023/06/29 00:49:36;;;;;;;33.05;15.40;;;;;;;19.55;100.00;101623.84;5222765;28;20025;-70
2023/06/29 00:52:07;;;;;;;31.73;15.15;;;;;;;19.54;100.00;101627.59;5222558;28;20098;-70
2023/06/29 00:54:38;;;;;;;29.83;15.15;;;;;;;19.55;100.00;101624.66;5222759;28;20017;-70
2023/06/29 00:57:09;;;;;;;29.23;14.88;;;;;;;19.59;100.00;101620.53;5222505;28;20036;-70
2023/06/29 00:59:39;;;;;;;32.20;13.75;;;;;;;19.60;100.00;101611.31;5222945;28;20051;-70
2023/06/29 01:02:10;;;;;;;27.08;13.50;;;;;;;19.57;100.00;101608.13;5223321;28;20433;-70
2023/06/29 01:04:41;;;;;;;32.50;14.00;;;;;;;19.55;100.00;101605.63;5223173;28;20063;-70
2023/06/29 01:07:22;;;;;;;24.55;14.30;;;;;;;19.52;100.00;101599.75;5222662;28;20067;-70
2023/06/29 01:09:53;;;;;;;30.58;14.88;;;;;;;19.52;100.00;101589.69;5223157;28;20024;-70
2023/06/29 01:12:24;;;;;;;36.25;15.57;;;;;;;19.53;100.00;101591.41;5223127;28;20560;-70
2023/06/29 01:14:56;;;;;;;26.90;14.07;;;;;;;19.52;100.00;101597.03;5223081;28;20470;-70
2023/06/29 01:17:31;;;;;;;31.67;15.93;;;;;;;19.52;100.00;101592.41;5226814;28;20020;-70
2023/06/29 01:20:02;;;;;;;24.33;14.10;;;;;;;19.50;100.00;101585.53;5231497;28;20033;-70
2023/06/29 01:22:37;;;;;;;31.60;16.00;;;;;;;19.40;100.00;101588.66;5222566;28;20021;-70
2023/06/29 01:25:08;;;;;;;30.25;15.43;;;;;;;19.40;100.00;101586.75;5222748;28;20032;-70
2023/06/29 01:27:43;;;;;;;31.90;15.95;;;;;;;19.38;100.00;101586.13;5222327;28;20024;-70
2023/06/29 01:30:13;;;;;;;33.70;16.25;;;;;;;19.35;100.00;101585.69;5223014;28;20453;-70
2023/06/29 01:32:44;;;;;;;33.50;15.43;;;;;;;19.32;100.00;101580.66;5222896;28;20029;-70
2023/06/29 01:35:15;;;;;;;28.30;15.32;;;;;;;19.30;100.00;101580.03;5225745;28;20029;-70
2023/06/29 01:37:58;;;;;;;29.70;14.48;;;;;;;19.23;100.00;101582.75;5225787;28;20025;-70
2023/06/29 01:40:30;;;;;;;27.65;15.05;;;;;;;19.20;100.00;101583.16;5226627;28;20067;-70
2023/06/29 01:43:02;;;;;;;26.67;14.65;;;;;;;19.14;100.00;101586.69;5226616;28;20091;-70
2023/06/29 01:45:34;;;;;;;30.15;16.38;;;;;;;19.09;100.00;101581.88;5226511;28;20029;-70
2023/06/29 01:48:06;;;;;;;28.25;16.02;;;;;;;19.09;100.00;101578.31;5225409;28;20410;-70
2023/06/29 01:50:37;;;;;;;30.13;15.48;;;;;;;19.06;100.00;101574.13;5226560;28;20394;-70
2023/06/29 01:53:08;;;;;;;32.13;17.00;;;;;;;19.05;100.00;101580.59;5226029;28;20104;-70
2023/06/29 01:55:38;;;;;;;28.95;16.40;;;;;;;19.06;100.00;101581.44;5226239;28;20056;-70
2023/06/29 01:58:10;;;;;;;28.40;16.05;;;;;;;19.03;100.00;101571.81;5225849;28;20058;-70
2023/06/29 02:00:40;;;;;;;30.73;16.23;;;;;;;19.02;100.00;101570.13;5226147;28;20031;-70
2023/06/29 02:03:11;;;;;;;35.20;17.15;;;;;;;18.99;100.00;101569.72;5226277;28;20120;-70
2023/06/29 02:05:42;;;;;;;30.15;16.58;;;;;;;19.00;100.00;101569.50;5225537;28;20029;-70
2023/06/29 02:08:12;;;;;;;34.17;17.38;;;;;;;18.98;100.00;101563.44;5226104;28;20437;-70
2023/06/29 02:10:46;;;;;;;31.90;16.92;;;;;;;18.96;100.00;101567.38;5226083;28;20029;-70
2023/06/29 02:13:16;;;;;;;32.78;16.27;;;;;;;18.91;100.00;101559.84;5225666;28;20029;-70
2023/06/29 02:15:47;;;;;;;34.13;17.55;;;;;;;18.86;100.00;101559.63;5225423;28;20043;-70
2023/06/29 02:18:18;;;;;;;33.17;17.23;;;;;;;18.82;100.00;101559.19;5225659;28;20033;-70
2023/06/29 02:20:50;;;;;;;31.58;18.83;;;;;;;18.81;100.00;101568.38;5225545;28;20049;-69
2023/06/29 02:23:20;;;;;;;35.30;16.45;;;;;;;18.76;100.00;101553.72;5225810;28;20067;-70
2023/06/29 02:25:51;;;;;;;28.80;16.55;;;;;;;18.74;100.00;101550.38;5224957;28;20032;-69
2023/06/29 02:28:21;;;;;;;34.40;17.88;;;;;;;18.69;100.00;101551.00;5225458;28;20025;-69
2023/06/29 02:30:52;;;;;;;34.97;18.52;;;;;;;18.69;100.00;101553.72;5225746;28;20032;-69
2023/06/29 02:33:22;;;;;;;37.95;18.65;;;;;;;18.72;100.00;101557.88;5225628;28;20033;-70
2023/06/29 02:35:53;;;;;;;33.13;18.00;;;;;;;18.76;100.00;101557.28;5225427;28;20057;-70
2023/06/29 02:38:23;;;;;;;33.05;17.55;;;;;;;18.85;100.00;101547.06;5225262;28;20027;-70
2023/06/29 02:40:54;;;;;;;38.10;17.95;;;;;;;18.89;100.00;101549.19;5225733;28;20418;-70
2023/06/29 02:43:24;;;;;;;31.80;17.48;;;;;;;18.92;100.00;101549.81;5225542;28;20033;-70
2023/06/29 02:45:55;;;;;;;36.03;18.75;;;;;;;18.92;100.00;101547.91;5224000;28;20023;-70
2023/06/29 02:48:25;;;;;;;34.97;17.52;;;;;;;18.94;100.00;101554.00;5223848;28;20053;-70
2023/06/29 02:50:56;;;;;;;39.90;19.92;;;;;;;18.98;100.00;101549.84;5225236;28;20479;-69
2023/06/29 02:53:27;;;;;;;40.67;21.13;;;;;;;18.99;100.00;101548.78;5225327;28;20389;-70
2023/06/29 02:55:57;;;;;;;38.38;19.73;;;;;;;19.02;100.00;101555.69;5224694;28;20107;-70
2023/06/29 02:58:27;;;;;;;42.60;21.45;;;;;;;19.03;100.00;101551.94;5225187;28;20028;-70
2023/06/29 03:00:58;;;;;;;42.50;20.90;;;;;;;19.03;100.00;101550.06;5225086;28;20090;-69
2023/06/29 03:03:28;;;;;;;42.90;21.75;;;;;;;19.06;100.00;101541.47;5225143;28;20021;-70
2023/06/29 03:05:59;;;;;;;46.55;23.05;;;;;;;19.05;100.00;101544.41;5224397;28;20439;-70
2023/06/29 03:08:29;;;;;;;46.85;22.10;;;;;;;19.07;100.00;101540.44;5225040;28;20025;-70
2023/06/29 03:11:00;;;;;;;39.75;21.05;;;;;;;19.08;100.00;101544.03;5225033;28;20521;-70
2023/06/29 03:13:30;;;;;;;41.15;21.15;;;;;;;19.08;100.00;101547.56;5224853;28;20482;-70
2023/06/29 03:16:01;;;;;;;40.20;21.23;;;;;;;19.09;100.00;101548.41;5224436;28;20025;-69
2023/06/29 03:18:31;;;;;;;43.67;20.92;;;;;;;19.08;100.00;101550.28;5223571;28;20029;-69
2023/06/29 03:21:02;;;;;;;43.40;22.55;;;;;;;19.13;100.00;101545.06;5224724;28;20025;-69
2023/06/29 03:23:32;;;;;;;41.95;21.58;;;;;;;19.15;100.00;101540.25;5224613;28;20581;-70
2023/06/29 03:26:03;;;;;;;42.53;19.90;;;;;;;19.18;100.00;101539.03;5224039;28;20486;-69
2023/06/29 03:28:33;;;;;;;48.95;23.08;;;;;;;19.15;100.00;101537.53;5224436;28;20491;-69
2023/06/29 03:31:04;;;;;;;46.85;21.35;;;;;;;19.14;100.00;101535.88;5224778;28;20028;-69
2023/06/29 03:33:34;;;;;;;53.17;22.35;;;;;;;19.12;100.00;101546.09;5224244;28;20075;-70
2023/06/29 03:36:05;;;;;;;42.33;21.55;;;;;;;19.13;100.00;101538.78;5224093;28;20538;-70
2023/06/29 03:38:35;;;;;;;40.05;21.50;;;;;;;19.14;100.00;101538.59;5224302;28;20143;-70
2023/06/29 03:41:06;;;;;;;42.90;21.40;;;;;;;19.15;100.00;101526.66;5224529;28;20029;-70
2023/06/29 03:43:36;;;;;;;39.50;20.80;;;;;;;19.19;100.00;101537.13;5224270;28;20016;-70
2023/06/29 03:46:07;;;;;;;41.20;21.60;;;;;;;19.19;100.00;101534.41;5223962;28;20021;-70
2023/06/29 03:48:37;;;;;;;45.00;21.02;;;;;;;19.20;100.00;101536.09;5223909;28;20121;-70
2023/06/29 03:51:08;;;;;;;45.00;22.33;;;;;;;19.21;100.00;101535.03;5223065;28;20123;-70
2023/06/29 03:53:38;;;;;;;44.20;22.67;;;;;;;19.20;100.00;101536.09;5224149;28;20033;-70
2023/06/29 03:56:10;;;;;;;48.78;22.23;;;;;;;19.19;100.00;101537.97;5223402;28;20027;-70
2023/06/29 03:58:40;;;;;;;45.67;22.20;;;;;;;19.18;100.00;101530.00;5223934;28;20108;-70
2023/06/29 04:01:11;;;;;;;45.50;22.13;;;;;;;19.20;100.00;101531.47;5224102;28;20112;-69
2023/06/29 04:03:41;;;;;;;40.08;21.45;;;;;;;19.19;100.00;101532.53;5223769;28;20606;-70
2023/06/29 04:06:12;;;;;;;42.67;22.65;;;;;;;19.18;100.00;101525.41;5223535;28;20032;-69
2023/06/29 04:08:42;;;;;;;39.25;22.23;;;;;;;19.17;100.00;101520.16;5223699;28;20067;-70
2023/06/29 04:11:13;;;;;;;44.20;22.45;;;;;;;19.15;100.00;101520.38;5223867;28;20020;-70
2023/06/29 04:13:43;;;;;;;42.78;20.67;;;;;;;19.11;100.00;101519.94;5223890;28;20423;-70
2023/06/29 04:16:14;;;;;;;43.33;20.20;;;;;;;19.08;100.00;101516.81;5222484;28;20032;-69
2023/06/29 04:18:44;;;;;;;44.78;21.63;;;;;;;19.04;100.00;101512.84;5223836;28;20029;-69
2023/06/29 04:21:15;;;;;;;40.55;20.38;;;;;;;18.99;100.00;101518.88;5223848;28;20078;-69
2023/06/29 04:23:45;;;;;;;40.28;21.60;;;;;;;18.97;100.00;101517.41;5223658;28;20033;-70
2023/06/29 04:26:16;;;;;;;45.30;22.13;;;;;;;18.94;100.00;101513.22;5223370;28;20053;-70
2023/06/29 04:28:46;;;;;;;44.70;20.33;;;;;;;18.93;100.00;101511.56;5217226;28;20037;-70
2023/06/29 04:31:17;;;;;;;42.05;21.45;;;;;;;18.94;100.00;101509.69;5221056;28;20029;-70
2023/06/29 04:33:47;;;;;;;39.92;19.90;;;;;;;18.96;100.00;101513.00;5223300;28;20441;-70
2023/06/29 04:36:18;;;;;;;43.03;20.02;;;;;;;18.98;100.00;101511.78;5223258;28;20025;-70
2023/06/29 04:38:48;;;;;;;43.28;21.92;;;;;;;18.98;100.00;101506.34;5223275;28;20028;-70
2023/06/29 04:41:19;;;;;;;44.88;22.30;;;;;;;19.02;100.00;101506.75;5223299;28;20037;-70
2023/06/29 04:43:51;;;;;;;40.78;21.30;;;;;;;19.05;100.00;101509.91;5223697;28;20021;-70
2023/06/29 04:46:21;;;;;;;44.53;21.15;;;;;;;19.08;100.00;101508.66;5223155;28;20029;-70
2023/06/29 04:48:52;;;;;;;36.63;19.40;;;;;;;19.10;100.00;101501.13;5223158;28;20033;-70
2023/06/29 04:51:22;;;;;;;38.15;19.90;;;;;;;19.12;100.00;101509.91;5223315;28;20029;-70
2023/06/29 04:53:53;;;;;;;42.20;20.05;;;;;;;19.12;100.00;101502.56;5223375;28;20021;-70
2023/06/29 04:56:23;;;;;;;44.83;21.02;;;;;;;19.12;100.00;101502.56;5223018;28;20394;-70
2023/06/29 04:58:54;;;;;;;37.10;19.45;;;;;;;19.11;100.00;101498.19;5223405;28;20047;-70
2023/06/29 05:01:25;;;;;;;43.50;19.77;;;;;;;19.12;100.00;101507.19;5223602;28;20100;-70
2023/06/29 05:03:55;;;;;;;36.65;20.80;;;;;;;19.14;100.00;101499.66;5223072;28;20032;-70
2023/06/29 05:06:26;;;;;;;41.72;20.23;;;;;;;19.20;100.00;101508.88;5223110;28;20028;-70
2023/06/29 05:08:56;;;;;;;46.45;21.73;;;;;;;19.25;100.00;101501.78;5224258;28;20032;-70
2023/06/29 05:11:27;;;;;;;34.58;19.95;;;;;;;19.29;100.00;101505.75;5227645;28;20025;-70
2023/06/29 05:13:57;;;;;;;42.58;21.52;;;;;;;19.35;100.00;101509.53;5227251;28;20021;-70
2023/06/29 05:16:28;;;;;;;37.40;20.77;;;;;;;19.41;100.00;101506.81;5226402;28;20036;-70
2023/06/29 05:18:59;;;;;;;42.08;20.77;;;;;;;19.52;100.00;101508.06;5227022;28;20071;-70
2023/06/29 05:21:29;;;;;;;43.10;20.35;;;;;;;19.66;100.00;101506.22;5227377;28;20036;-70
2023/06/29 05:24:00;;;;;;;38.67;20.63;;;;;;;19.76;100.00;101503.06;5226865;28;20017;-70
2023/06/29 05:26:31;;;;;;;38.55;19.50;;;;;;;19.79;100.00;101505.38;5226695;28;20024;-70
2023/06/29 05:29:03;;;;;;;43.60;21.33;;;;;;;19.81;100.00;101503.25;5226479;28;20024;-70
2023/06/29 05:31:33;;;;;;;37.80;20.08;;;;;;;19.85;100.00;101499.06;5227058;28;20115;-70
2023/06/29 05:34:04;;;;;;;43.55;21.13;;;;;;;19.92;100.00;101494.44;5226988;28;20419;-70
2023/06/29 05:36:35;;;;;;;43.65;21.88;;;;;;;19.95;100.00;101495.91;5226305;28;20027;-70
2023/06/29 05:39:06;;;;;;;40.92;21.42;;;;;;;20.01;100.00;101487.72;5226795;28;20028;-70
2023/06/29 05:41:37;;;;;;;41.15;21.08;;;;;;;20.10;100.00;101493.78;5226581;28;20386;-70
2023/06/29 05:44:08;;;;;;;38.90;20.20;;;;;;;20.26;100.00;101484.31;5227051;28;20025;-70
2023/06/29 05:46:39;;;;;;;40.05;20.77;;;;;;;20.46;100.00;101487.78;5226109;28;20158;-70
2023/06/29 05:49:09;;;;;;;40.58;20.80;;;;;;;20.58;100.00;101485.25;5226513;28;20031;-70
2023/06/29 05:51:42;;;;;;;40.33;20.90;;;;;;;20.69;100.00;101481.84;5226774;28;20025;-70
2023/06/29 05:54:12;;;;;;;44.65;21.45;;;;;;;20.69;100.00;101484.59;5226416;28;20036;-70
2023/06/29 05:56:43;;;;;;;39.00;21.08;;;;;;;20.66;100.00;101474.09;5226060;28;20032;-70
2023/06/29 05:59:13;;;;;;;38.45;21.10;;;;;;;20.68;100.00;101472.84;5226433;28;20024;-70
2023/06/29 06:01:44;;;;;;;37.92;20.65;;;;;;;20.58;100.00;101472.47;5226535;28;20055;-70
2023/06/29 06:04:14;;;;;;;45.35;21.55;;;;;;;20.58;100.00;101483.38;5226188;28;20079;-70
2023/06/29 06:06:46;;;;;;;42.30;21.63;;;;;;;20.69;100.00;101476.41;5225729;28;20016;-70
2023/06/29 06:09:17;;;;;;;36.95;20.35;;;;;;;20.82;100.00;101489.94;5220587;28;20035;-70
2023/06/29 06:11:47;;;;;;;42.53;19.98;;;;;;;20.85;100.00;101478.63;5209047;28;20033;-70
2023/06/29 06:14:18;;;;;;;42.63;22.10;;;;;;;20.88;100.00;101486.38;5222159;28;20024;-70
2023/06/29 06:16:48;;;;;;;37.25;21.30;;;;;;;20.93;100.00;101481.09;5224160;28;20075;-70
2023/06/29 06:19:19;;;;;;;40.33;20.27;;;;;;;21.08;100.00;101479.94;5237733;28;20712;-70
2023/06/29 06:21:49;;;;;;;38.03;21.45;;;;;;;21.19;100.00;101480.06;5224241;28;20031;-71
2023/06/29 06:24:20;;;;;;;45.63;21.55;;;;;;;21.37;100.00;101482.03;5223366;28;20039;-71
2023/06/29 06:26:50;;;;;;;35.72;21.33;;;;;;;21.38;100.00;101480.97;5223906;28;20398;-70
2023/06/29 06:29:21;;;;;;;40.13;21.60;;;;;;;21.44;100.00;101480.13;5223706;28;20484;-71
2023/06/29 06:31:51;;;;;;;42.00;20.63;;;;;;;21.43;100.00;101483.03;5224422;28;20086;-71
2023/06/29 06:34:22;;;;;;;39.42;21.65;;;;;;;21.61;100.00;101477.66;5225114;28;20060;-71
2023/06/29 06:36:52;;;;;;;39.65;21.10;;;;;;;21.78;100.00;101483.34;5223844;28;20017;-71
2023/06/29 06:39:23;;;;;;;38.75;20.70;;;;;;;21.96;100.00;101479.84;5225478;28;20120;-71
2023/06/29 06:41:57;;;;;;;38.00;21.70;;;;;;;22.00;100.00;101485.69;5225096;28;20024;-70
2023/06/29 06:44:28;;;;;;;37.20;19.15;;;;;;;22.06;100.00;101484.78;5223107;28;20112;-70
2023/06/29 06:46:58;;;;;;;36.17;20.10;;;;;;;21.94;100.00;101485.53;5223717;28;20103;-71
2023/06/29 06:49:28;;;;;;;41.08;20.65;;;;;;;21.86;100.00;101484.97;5223657;28;20087;-70
2023/06/29 06:52:02;;;;;;;36.75;20.27;;;;;;;21.78;100.00;101485.25;5224117;28;20378;-71
2023/06/29 06:54:32;;;;;;;42.47;20.55;;;;;;;21.81;100.00;101477.47;5223582;28;20029;-70
2023/06/29 06:57:03;;;;;;;41.28;21.65;;;;;;;21.88;100.00;101480.94;5223375;28;20071;-71
2023/06/29 06:59:33;;;;;;;34.13;19.45;;;;;;;21.94;100.00;101481.97;5223403;28;20035;-71
2023/06/29 07:02:05;;;;;;;37.75;20.48;;;;;;;22.06;100.00;101484.78;5223824;28;20021;-71
2023/06/29 07:04:36;;;;;;;38.03;20.20;;;;;;;22.17;100.00;101479.41;5223837;28;20078;-71
2023/06/29 07:07:07;;;;;;;39.47;21.02;;;;;;;22.16;100.00;101476.91;5222841;28;20657;-71
2023/06/29 07:09:38;;;;;;;43.00;21.35;;;;;;;22.25;100.00;101478.28;5223049;28;20031;-71
2023/06/29 07:12:09;;;;;;;38.50;20.25;;;;;;;22.30;100.00;101478.44;5223160;28;20025;-71
2023/06/29 07:14:40;;;;;;;43.03;22.02;;;;;;;22.26;100.00;101479.94;5223562;28;20047;-71
2023/06/29 07:17:10;;;;;;;36.70;19.35;;;;;;;22.17;100.00;101479.41;5224899;28;20025;-71
2023/06/29 07:19:41;;;;;;;43.10;21.85;;;;;;;22.19;100.00;101477.31;5234288;28;20562;-71
2023/06/29 07:22:11;;;;;;;43.30;21.13;;;;;;;22.17;100.00;101479.41;5223160;28;20036;-71
2023/06/29 07:24:42;;;;;;;44.22;22.20;;;;;;;22.14;100.00;101484.47;5223417;28;20104;-71
2023/06/29 07:27:12;;;;;;;45.33;21.90;;;;;;;22.08;100.00;101471.72;5222786;28;20024;-71
2023/06/29 07:29:44;;;;;;;41.67;22.27;;;;;;;22.04;100.00;101479.53;5222657;28;20078;-71
2023/06/29 07:32:15;;;;;;;42.10;22.00;;;;;;;21.98;100.00;101481.25;5222416;28;20024;-71
2023/06/29 07:34:46;;;;;;;43.70;21.90;;;;;;;21.89;100.00;101484.53;5223222;28;20029;-71
2023/06/29 07:37:16;;;;;;;41.63;21.88;;;;;;;21.79;100.00;101473.28;5222391;28;20041;-71
2023/06/29 07:39:47;;;;;;;41.35;21.80;;;;;;;21.82;100.00;101472.84;5222681;28;20163;-71
2023/06/29 07:42:17;;;;;;;42.35;23.35;;;;;;;21.80;100.00;101473.06;5222168;28;20052;-71
2023/06/29 07:44:48;;;;;;;40.17;21.45;;;;;;;21.81;100.00;101476.63;5222685;28;20020;-71
2023/06/29 07:47:18;;;;;;;41.60;21.80;;;;;;;21.85;100.00;101480.59;5222216;28;20032;-71
2023/06/29 07:49:49;;;;;;;46.35;22.60;;;;;;;21.90;100.00;101472.53;5222327;28;20033;-71
2023/06/29 07:52:19;;;;;;;41.08;22.63;;;;;;;21.93;100.00;101480.28;5222845;28;20166;-71
2023/06/29 07:54:50;;;;;;;42.85;22.65;;;;;;;21.94;100.00;101466.41;5222368;28;20115;-71
2023/06/29 07:57:20;;;;;;;46.58;22.35;;;;;;;22.03;100.00;101464.19;5222450;28;20017;-71
2023/06/29 07:59:51;;;;;;;38.22;21.27;;;;;;;22.26;100.00;101460.81;5222214;28;20470;-71
2023/06/29 08:02:21;;;;;;;41.53;22.67;;;;;;;22.42;100.00;101459.34;5222971;28;20029;-71
2023/06/29 08:04:52;;;;;;;42.45;22.42;;;;;;;22.54;100.00;101465.72;5222573;28;20036;-71
2023/06/29 08:07:22;;;;;;;49.42;24.30;;;;;;;22.59;100.00;101463.13;5221682;28;20432;-71
2023/06/29 08:09:53;;;;;;;43.88;23.25;;;;;;;22.70;100.00;101459.59;5222243;28;20028;-71
2023/06/29 08:12:25;;;;;;;49.53;23.77;;;;;;;22.75;100.00;101457.00;5222079;28;20029;-71
2023/06/29 08:14:55;;;;;;;45.92;22.60;;;;;;;22.83;100.00;101463.22;5222660;28;20028;-71
2023/06/29 08:17:25;;;;;;;45.22;24.13;;;;;;;22.83;100.00;101453.09;5221629;28;20013;-71
2023/06/29 08:19:56;;;;;;;47.10;24.20;;;;;;;22.90;100.00;101455.78;5222221;28;20067;-71
2023/06/29 08:22:26;;;;;;;47.70;24.00;;;;;;;22.75;100.00;101458.91;5222262;28;20009;-70
2023/06/29 08:24:57;;;;;;;45.60;23.77;;;;;;;22.79;100.00;101446.41;5222513;28;20074;-71
2023/06/29 08:27:27;;;;;;;44.75;24.08;;;;;;;22.80;100.00;101453.59;5221592;28;20039;-71
2023/06/29 08:29:58;;;;;;;46.35;23.63;;;;;;;22.79;100.00;101457.34;5222008;28;20023;-71
2023/06/29 08:32:28;;;;;;;48.10;24.17;;;;;;;22.80;100.00;101459.06;5222122;28;20482;-71
2023/06/29 08:34:59;;;;;;;44.53;24.02;;;;;;;22.89;100.00;101456.81;5222247;28;20025;-71
2023/06/29 08:37:30;;;;;;;45.38;24.25;;;;;;;23.02;100.00;101455.81;5221780;28;20025;-71
2023/06/29 08:40:00;;;;;;;50.05;23.85;;;;;;;23.11;100.00;101455.25;5221913;28;20395;-71
2023/06/29 08:42:31;;;;;;;52.33;24.33;;;;;;;23.22;100.00;101453.59;5221951;28;20386;-71
2023/06/29 08:45:01;;;;;;;42.45;22.95;;;;;;;23.31;100.00;101454.91;5224731;28;20035;-71
2023/06/29 08:47:34;;;;;;;48.53;24.20;;;;;;;23.23;100.00;101458.81;5225622;28;20033;-71
2023/06/29 08:50:08;;;;;;;44.03;24.27;;;;;;;23.31;100.00;101454.91;5226066;28;20025;-71
2023/06/29 08:52:39;;;;;;;45.78;24.45;;;;;;;23.36;100.00;101454.22;5226203;28;20043;-71
2023/06/29 08:55:10;;;;;;;46.83;24.17;;;;;;;23.44;100.00;101454.69;5225905;28;20601;-71
2023/06/29 08:57:41;;;;;;;43.75;23.73;;;;;;;23.55;100.00;101458.53;5225617;28;20167;-71
2023/06/29 09:00:13;;;;;;;47.42;24.40;;;;;;;23.50;100.00;101450.19;5224670;28;20429;-71
2023/06/29 09:02:45;;;;;;;46.08;23.58;;;;;;;23.64;100.00;101457.09;5225748;28;20021;-71
2023/06/29 09:05:16;;;;;;;47.85;24.17;;;;;;;23.74;100.00;101449.13;5224846;28;20025;-71
2023/06/29 09:07:47;;;;;;;47.08;23.77;;;;;;;23.80;100.00;101449.22;5224514;28;20067;-71
2023/06/29 09:10:17;;;;;;;52.38;24.33;;;;;;;23.85;100.00;101454.84;5225323;28;20031;-71
2023/06/29 09:12:52;;;;;;;49.38;24.75;;;;;;;23.90;100.00;101439.34;5224906;28;20563;-71
2023/06/29 09:15:25;;;;;;;47.95;24.20;;;;;;;23.88;100.00;101441.47;5225463;28;20021;-71
2023/06/29 09:17:56;;;;;;;48.20;24.85;;;;;;;23.96;100.00;101438.38;5224709;28;20029;-71
2023/06/29 09:20:27;;;;;;;42.25;22.75;;;;;;;23.89;100.00;101439.56;5224732;28;20028;-71
2023/06/29 09:22:58;;;;;;;46.75;24.20;;;;;;;23.71;100.00;101435.91;5225210;28;20056;-71
2023/06/29 09:25:30;;;;;;;41.88;23.77;;;;;;;23.55;100.00;101433.03;5225092;28;20048;-71
2023/06/29 09:28:04;;;;;;;44.95;24.25;;;;;;;23.44;100.00;101435.50;5223694;28;20056;-71
2023/06/29 09:30:54;;;;;;;43.77;24.00;;;;;;;23.41;100.00;101435.16;5224360;28;20108;-71
2023/06/29 09:33:25;;;;;;;48.72;25.25;;;;;;;23.40;100.00;101436.25;5224980;28;20360;-71
2023/06/29 09:35:56;;;;;;;49.47;24.98;;;;;;;23.45;100.00;101431.72;5224516;28;20028;-71
2023/06/29 09:38:31;;;;;;;47.78;24.00;;;;;;;23.38;100.00;101436.47;5225197;28;20032;-71
2023/06/29 09:41:06;;;;;;;48.67;25.83;;;;;;;23.40;100.00;101448.03;5224406;28;20021;-71
2023/06/29 09:43:37;;;;;;;49.40;24.42;;;;;;;23.51;100.00;101444.47;5224956;28;20021;-71
2023/06/29 09:46:08;;;;;;;47.38;26.20;;;;;;;23.49;100.00;101446.63;5224783;28;20047;-71
2023/06/29 09:49:01;;;;;;;48.45;23.85;;;;;;;23.40;100.00;101445.28;5223494;28;20029;-71
2023/06/29 09:51:31;;;;;;;48.58;24.67;;;;;;;23.39;100.00;101446.34;5224389;28;20409;-71
2023/06/29 09:54:02;;;;;;;50.95;25.85;;;;;;;23.36;100.00;101444.09;5224865;28;20017;-71
2023/06/29 09:56:34;;;;;;;46.40;24.30;;;;;;;23.42;100.00;101448.63;5223844;28;20474;-72
2023/06/29 09:59:09;;;;;;;52.15;25.75;;;;;;;23.38;100.00;101450.16;5225386;28;20391;-70
2023/06/29 10:01:40;;;;;;;52.83;26.87;;;;;;;23.44;100.00;101440.97;5225192;28;20028;-71
2023/06/29 10:04:11;;;;;;;51.70;25.85;;;;;;;23.54;100.00;101445.88;5224979;28;20035;-71
2023/06/29 10:07:05;;;;;;;45.80;24.55;;;;;;;23.63;100.00;101443.63;5224581;28;20044;-71
2023/06/29 10:09:37;;;;;;;51.58;27.02;;;;;;;23.52;100.00;101443.38;5224933;28;20021;-71
2023/06/29 10:12:10;;;;;;;52.88;28.52;;;;;;;23.53;100.00;101446.94;5225153;28;20025;-72
2023/06/29 10:14:43;;;;;;;54.55;27.65;;;;;;;23.52;100.00;101443.38;5225106;28;20032;-71
2023/06/29 10:17:33;;;;;;;52.10;28.40;;;;;;;23.50;100.00;101439.22;5224410;28;20028;-71
2023/06/29 10:20:05;;;;;;;51.63;27.38;;;;;;;23.34;100.00;101448.94;5225119;28;20572;-71
2023/06/29 10:22:37;;;;;;;56.15;27.92;;;;;;;23.38;100.00;101449.31;5224334;28;20023;-71
2023/06/29 10:25:12;;;;;;;51.70;26.77;;;;;;;23.42;100.00;101445.03;5224715;28;20540;-72
2023/06/29 10:27:43;;;;;;;52.38;27.27;;;;;;;23.42;100.00;101445.03;5224393;28;20031;-71
2023/06/29 10:30:51;;;;;;;60.85;28.35;;;;;;;23.33;100.00;101444.56;5224861;28;20029;-72
2023/06/29 10:33:22;;;;;;;50.70;27.40;;;;;;;23.55;100.00;101444.00;5224418;28;20037;-71
2023/06/29 10:36:12;;;;;;;49.70;28.33;;;;;;;23.71;100.00;101444.13;5224843;28;20020;-71
2023/06/29 10:38:43;;;;;;;62.75;28.38;;;;;;;23.94;100.00;101440.50;5224586;28;20021;-72
2023/06/29 10:41:26;;;;;;;53.50;27.85;;;;;;;24.11;100.00;101448.00;5224583;28;20024;-72
2023/06/29 10:43:58;;;;;;;59.60;28.17;;;;;;;24.11;100.00;101442.53;5224562;28;20021;-71
2023/06/29 10:46:44;;;;;;;52.80;27.95;;;;;;;24.28;100.00;101440.69;5224261;28;20028;-72
2023/06/29 10:49:33;;;;;;;54.03;27.02;;;;;;;24.38;100.00;101438.19;5223967;28;20029;-71
2023/06/29 10:52:04;;;;;;;49.97;26.83;;;;;;;24.51;100.00;101437.91;5212498;28;20023;-71
2023/06/29 10:54:35;;;;;;;51.22;26.13;;;;;;;24.52;100.00;101434.06;5224320;28;20025;-73
2023/06/29 10:57:07;;;;;;;48.72;27.52;;;;;;;24.64;100.00;101430.44;5224041;28;20067;-71
2023/06/29 10:59:39;;;;;;;48.35;27.65;;;;;;;24.93;100.00;101431.25;5221287;28;20035;-71
2023/06/29 11:02:10;;;;;;;51.85;28.17;;;;;;;25.24;100.00;101433.47;5219682;28;20013;-72
2023/06/29 11:04:41;;;;;;;51.08;27.90;;;;;;;25.35;100.00;101426.22;5234561;28;20032;-71
2023/06/29 11:07:13;;;;;;;50.83;29.58;;;;;;;25.26;100.00;101420.31;5230237;28;20021;-71
2023/06/29 11:09:43;;;;;;;49.72;27.13;;;;;;;25.31;100.00;101422.31;5233107;28;20016;-71
2023/06/29 11:12:16;;;;;;;49.70;28.45;;;;;;;24.97;100.00;101416.78;5215277;28;20033;-71
2023/06/29 11:14:46;;;;;;;50.80;28.25;;;;;;;24.95;100.00;101418.09;5231566;28;20049;-70
2023/06/29 11:17:17;;;;;;;52.28;28.00;;;;;;;24.99;100.00;101416.53;5230051;28;20028;-72
2023/06/29 11:19:49;;;;;;;52.90;28.67;;;;;;;24.99;100.00;101422.03;5223056;28;20070;-71
2023/06/29 11:22:20;;;;;;;56.53;28.42;;;;;;;25.18;100.00;101417.16;5226611;28;20021;-71